Warning: Javascript must be enabled to use all the features on this page!


Page Loading - Please Wait...

Click to hideNews Bulletins

Peak Streamflow for the Nation

USGS 11025500 SANTA YSABEL C NR RAMONA CA

San Diego County, California
Hydrologic Unit Code 18070304
Latitude  33°06'25", Longitude 116°51'55" NAD27
Drainage area 112  square miles
Gage datum 847.88 feet above NGVD29
Output formats
Table
Graph
Tab-separated file
peakfq (watstore) format
Reselect output format
Water
Year
Date Gage
Height
(feet)
Stream-
flow
(cfs)
1912 1912-03-10   2781
1913 1913-02-25   172
1914 1914-02-21 5.95 1,960
1915 1915-02-11 4.55 3,330
1916 1916-01-27 14.006 28,400
1917 1917-02-23 4.55 2,540
1918 1918-03-12 9.10 2,5002
1919 1919-03-14 2.10 110
1920 1920-03-26 4.60 740
1921 1921-03-14 2.60 122
1922 1921-12-20 11.60 9,860
1944 1944-02-23 4.836 1,580
1945 1945-03-15 4.69 1,140
1946 1945-12-23 8.35 4,200
1947 1946-11-23 3.84 544
1948 1948-02-06 1.83 96.0
1949 1949-02-07 2.35 184
1950 1950-02-07 2.30 174
1951 1951-01-30 2.10 130
1952 1952-01-18 6.69 2,510
1953 1953-01-07 2.09 125
1954 1954-03-22 6.10 1,280
1955 1955-01-18 2.38 13.06
1956 1956-01-27 4.64 4966
1957 1957-03-20 2.43 12.06
1958 1958-04-03 8.62 3,4206
1959 1959-02-17 3.10 94.06
1960 1960-02-10 2.56 21.06
1961 1961   0.006,Bm
1962 1962-01-20 3.08 86.06
1963 1963-02-10 3.68 1746
1964 1964-03-24 2.08 3.006
1965 1965-04-10 3.59 1176
1966 1965-11-23 10.06 4,5706
1967 1966-12-06 11.44 6,0506
1968 1968-03-08 3.02 78.06
1969 1969-01-25 11.55 6,1806
1970 1970-03-05 3.09 88.06
1971 1971-01-03 2.46 20.06
1973 1973-03-11 3.47 1416
1974 1974-01-08 3.88 2546
1975 1975-04-09 3.11 79.06
1976 1976-02-09 3.33 1076
1977 1977-05-10 2.51 13.76
1978 1978-03-01 9.28 4,0006
1979 1979-03-28 7.30 2,1806
1980 1980-02-21 14.25 10,7006
1981 1981-02-09 3.33 1496
1982 1982-03-17 5.75 1,1206
1983 1983-03-02 7.17 2,0706
1984 1983-12-25 4.77 6006
1985 1984-12-28 2.99 86.06
1986 1986-02-15 7.17 2,0706
1987 1987-01-05 2.43 22.06
1988 1988-01-17 4.63 5406
1989 1989-02-05 2.57 30.06
1990 1990-01-17 1.99 1.306
1991 1991-03-01 5.99 1,2406
1992 1992-03-21 2.99 78.06
1993 1993-01-16 8.44 3,1506
1994 1994-02-08 3.20 1316
1995 1995-03-05 12.45 8,0006
1996 1996-02-01 3.62 2296
1997 1997-01-13 4.23 4206
1998 1998-02-14 8.20 2,9306
1999 1998-12-06 2.63 41.06
2000 2000-02-23 2.50 20.06
2001 2001-02-27 2.65 21.06
2002 2002-03-18 2.29 3.906
2003 2003-04-15 2.96 50.06
2004 2004-04-01 3.31 92.06
2005 2005-01-11 9.95 4,7006
2006 2006-04-05 3.44 1846,C
2007 2007-02-19 2.56 13.06,C
2008 2008-01-27 6.28 1,4406,C
2009 2008-12-17 5.25 8466,C
2010 2010-01-21 6.68 1,7206,C
2011 2010-12-22 9.49 4,1906,C
2012 2012-04-14 2.84 29.06,C
2013 2013-03-08 2.55 8.906,C
2014 2014-08-03 3.53 1296,C
2015 2015-07-19 4.63 4896,C
2016 2016-01-05 6.16 1,3606,C
2017 2017-02-27 11.06 5,5406,C
2018 2018-01-09 4.56 1656,C
2019 2019-02-14 10.432 5,2506,C
2020 2020-04-10 5.71 1,0906,C
2021 2021-03-11 2.28 5.666,C
?
  Peak Gage-Height Qualification Codes.
?
  Peak Streamflow Qualification Codes.